Aérodrome :
LOGIN :

S'inscrire | Disclaimer

   EN    FR    IT 

 










Légende :    VFR   VFR Marginal   IFR   IFR Intensif   IFR Très Intensif
Visi : 
Plafond : 
>= 8 km
>= 3000ft
5 à 8 km
1000 à 3000 ft
1500m à 5 km
500 à 1000 ft
800 à 1500m
200 à 500 ft
< 800m
< 200 ft
Symboles :   Orages  Brouillard  Fortes neiges  Fortes précipitations  Vent > 20 kt
SIGMETs :   Divers  Orages  Givrage  Turbulence  Onde Orograph.  Cendres Volcan.






- Altitude de l'aérodrome : 32 ft
- Code IATA : LKZ


EGUL - RAF Lakenheath

METARs EXPIRÉS :
  • 180255Z AUTO 00000KT 9999 CLR 10/08 A2991 RMK AO2 SLP132 T01030084 58002 FZRANO $
  • 180155Z AUTO 00000KT 9999 CLR 10/09 A2991 RMK AO2 SLP132 T01020086 FZRANO $

TAF TAF EGUL
Valide du 17 à 13h jusqu'au 18 à 19h UTC


171307Z 1713/1819 25012KT 9999 SCT040 QNH2979INS
TEMPO 1713/1718 25010G20KT VCSH BKN030
BECMG 1722/1723 27012KT 9999 SCT050 BKN080 QNH2990INS
BECMG 1805/1806 29006KT 9999 FEW080 QNH2995INS
BECMG 1815/1816 30006KT 9999 SCT030 BKN050 QNH3001INS TX20/1717Z TN11/1804Z



MET'MAP, la Météo Aéronautique d'un coup d'oeil ! - Copyright ORBIFLY Décembre 2007 - Disclaimer

ORBIFLY MET'MAP TEAM :

Programmation & Développement : Alexandra Zaïnal
Sur une idée originale de : Baudouin d'Aumeries
Soutien technique & logistique : Manuel Goepfert
Assistance : Marc-Olivier Méhu




SOURCES & CREDITS :

   NOAA